createdAt,value
2018-04-18T04:09:22.353Z,12.15
2018-04-18T04:09:47.816Z,12.21
2018-04-18T04:10:13.260Z,12.1
2018-04-18T04:10:38.715Z,12.1
2018-04-18T04:11:04.213Z,12.09
2018-04-18T04:11:29.701Z,12.09
2018-04-18T04:11:55.204Z,12.1
2018-04-18T04:12:20.787Z,12.09
2018-04-18T04:12:46.265Z,12
2018-04-18T04:13:11.695Z,12
2018-04-18T04:13:37.194Z,12.04
2018-04-18T04:14:02.805Z,12.07
2018-04-18T04:14:28.274Z,11.99
2018-04-18T04:14:53.832Z,12.06
2018-04-18T04:15:19.503Z,12.04
2018-04-18T04:15:44.925Z,11.91
2018-04-18T04:16:10.542Z,12.02
2018-04-18T04:16:35.978Z,12
2018-04-18T04:17:01.453Z,11.97
2018-04-18T04:17:27.020Z,11.97
2018-04-18T04:17:52.560Z,12
2018-04-18T04:18:18.331Z,11.95
2018-04-18T04:18:43.818Z,11.95
2018-04-18T04:19:09.453Z,12
2018-04-18T04:19:35.640Z,11.99
2018-04-18T04:20:01.119Z,11.99
2018-04-18T04:20:26.804Z,12.02
2018-04-18T04:20:52.515Z,11.95
2018-04-18T04:21:18.000Z,11.99
2018-04-18T04:21:43.446Z,11.97
2018-04-18T04:22:08.936Z,12.02
2018-04-18T04:22:34.428Z,12
2018-04-18T04:22:59.920Z,12.02
2018-04-18T04:23:25.467Z,11.95
2018-04-18T04:23:50.969Z,11.97
2018-04-18T04:24:16.466Z,11.99
2018-04-18T04:24:41.913Z,11.99
2018-04-18T04:25:07.434Z,12
2018-04-18T04:25:33.171Z,12
2018-04-18T04:25:58.720Z,12.03
2018-04-18T04:26:24.205Z,12
2018-04-18T04:26:49.756Z,11.97
2018-04-18T04:27:15.252Z,11.97
2018-04-18T04:27:40.723Z,12.02
2018-04-18T04:28:06.290Z,11.91
2018-04-18T04:28:31.769Z,11.99
2018-04-18T04:28:58.240Z,11.97
2018-04-18T04:29:23.754Z,12.06
2018-04-18T04:29:49.418Z,12
2018-04-18T04:30:15.127Z,12
2018-04-18T04:30:40.644Z,11.97
2018-04-18T04:31:06.205Z,11.99
2018-04-18T04:31:32.458Z,11.94
2018-04-18T04:31:57.935Z,11.9
2018-04-18T04:32:23.917Z,11.97
2018-04-18T04:32:49.511Z,12.06
2018-04-18T04:33:14.999Z,12
2018-04-18T04:33:40.498Z,12.03
2018-04-18T04:34:05.970Z,11.99
2018-04-18T04:34:31.566Z,11.95
2018-04-18T04:34:57.157Z,11.97
2018-04-18T04:35:22.737Z,11.99
2018-04-18T04:35:48.228Z,11.97
2018-04-18T04:36:13.742Z,11.99
2018-04-18T04:36:39.195Z,12
2018-04-18T04:37:04.737Z,12
2018-04-18T04:37:30.113Z,11.99
2018-04-18T04:37:55.613Z,11.95
2018-04-18T04:38:21.088Z,11.91
2018-04-18T04:38:46.671Z,11.9
2018-04-18T04:39:12.109Z,11.9
2018-04-18T04:39:37.618Z,11.97
2018-04-18T04:40:03.176Z,11.97
2018-04-18T04:40:28.590Z,11.91
2018-04-18T04:40:54.170Z,12.02
2018-04-18T04:41:19.661Z,12.02
2018-04-18T04:41:45.077Z,11.99
2018-04-18T04:42:10.586Z,11.99
2018-04-18T04:42:36.062Z,11.97
2018-04-18T04:43:01.599Z,11.91
2018-04-18T04:43:27.138Z,11.97
2018-04-18T04:43:52.598Z,11.95
2018-04-18T04:44:18.203Z,12.02
2018-04-18T04:44:43.774Z,12
2018-04-18T04:45:09.250Z,12
2018-04-18T04:45:34.794Z,11.97
2018-04-18T04:46:00.359Z,11.97
2018-04-18T04:46:25.891Z,11.99
2018-04-18T04:46:51.307Z,11.91
2018-04-18T04:47:16.905Z,11.99
2018-04-18T04:47:42.563Z,11.99
2018-04-18T04:48:07.944Z,12.06
2018-04-18T04:48:33.477Z,11.94
2018-04-18T04:48:59.367Z,11.97
2018-04-18T04:49:24.904Z,11.97
2018-04-18T04:49:50.280Z,11.97
2018-04-18T04:50:15.866Z,11.99
2018-04-18T04:50:41.349Z,11.97
2018-04-18T04:51:06.966Z,12.03
2018-04-18T04:51:32.415Z,11.91
2018-04-18T04:51:58.069Z,11.97
2018-04-18T04:52:23.483Z,11.95
2018-04-18T04:52:48.984Z,11.99
2018-04-18T04:53:14.473Z,11.95
2018-04-18T04:53:39.939Z,12
2018-04-18T04:54:05.390Z,11.97
2018-04-18T04:54:30.979Z,12
2018-04-18T04:54:56.542Z,11.99
2018-04-18T04:55:22.044Z,12
2018-04-18T04:55:47.631Z,11.91
2018-04-18T04:56:13.177Z,11.99
2018-04-18T04:56:38.679Z,12.02
2018-04-18T04:57:04.226Z,11.99
2018-04-18T04:57:29.754Z,11.99
2018-04-18T04:57:55.200Z,11.91
2018-04-18T04:58:20.681Z,12
2018-04-18T04:58:46.156Z,11.94
2018-04-18T04:59:11.672Z,12
2018-04-18T04:59:37.170Z,11.97
2018-04-18T05:00:02.776Z,12
2018-04-18T05:00:29.373Z,12
2018-04-18T05:00:56.221Z,11.97
2018-04-18T05:01:22.078Z,12
2018-04-18T05:01:48.629Z,11.99
2018-04-18T05:02:20.119Z,11.97
2018-04-18T05:02:47.950Z,12.06
2018-04-18T05:03:15.616Z,12
2018-04-18T05:03:43.689Z,12.07
2018-04-18T05:04:11.096Z,12.04
2018-04-18T05:05:10.923Z,12.07
2018-04-18T05:05:37.651Z,12.12
2018-04-18T05:06:03.130Z,12.07
2018-04-18T05:06:28.737Z,12.15
2018-04-18T05:06:54.288Z,12.22
2018-04-18T05:07:19.826Z,12.15
2018-04-18T05:07:45.249Z,12.15
2018-04-18T05:08:50.471Z,12.21
2018-04-18T05:09:16.495Z,12.2
2018-04-18T05:09:42.237Z,12.22
2018-04-18T05:10:07.695Z,12.17
2018-04-18T05:10:33.290Z,12.21
2018-04-18T05:10:58.874Z,12.17
2018-04-18T05:11:24.265Z,12.24
2018-04-18T05:11:50.750Z,12.18
2018-04-18T05:12:16.217Z,12.17
2018-04-18T05:12:43.042Z,12.21
2018-04-18T05:13:08.721Z,12.21
2018-04-18T05:13:34.106Z,12.13
2018-04-18T05:13:59.544Z,12.17
2018-04-18T05:14:25.190Z,12.21
2018-04-18T05:14:50.541Z,12.22
2018-04-18T05:15:16.012Z,12.25
2018-04-18T05:15:41.516Z,12.17
2018-04-18T05:16:07.010Z,12.25
2018-04-18T05:16:32.425Z,12.27
2018-04-18T05:16:58.005Z,12.22
2018-04-18T05:17:23.351Z,12.28
2018-04-18T05:17:48.974Z,12.25
2018-04-18T05:18:14.471Z,12.25
2018-04-18T05:18:39.909Z,12.32
2018-04-18T05:19:05.408Z,12.28
2018-04-18T05:19:31.001Z,12.27
2018-04-18T05:19:56.468Z,12.31
2018-04-18T05:20:22.025Z,12.25
2018-04-18T05:20:47.450Z,12.32
2018-04-18T05:21:13.077Z,12.27
2018-04-18T05:21:38.486Z,12.32
2018-04-18T05:22:03.951Z,12.37
2018-04-18T05:22:29.476Z,12.32
2018-04-18T05:22:55.101Z,12.39
2018-04-18T05:23:20.591Z,12.37
2018-04-18T05:23:46.396Z,12.49
2018-04-18T05:24:11.624Z,12.43
2018-04-18T05:24:37.172Z,12.36
2018-04-18T05:25:02.630Z,12.35
2018-04-18T05:25:28.128Z,12.4
2018-04-18T05:25:53.569Z,12.45
2018-04-18T05:26:19.066Z,12.39
2018-04-18T05:26:44.572Z,12.4
2018-04-18T05:27:09.962Z,12.4
2018-04-18T05:27:35.458Z,12.46
2018-04-18T05:28:00.850Z,12.46
2018-04-18T05:28:26.361Z,12.43
2018-04-18T05:28:51.883Z,12.42
2018-04-18T05:29:17.371Z,12.49
2018-04-18T05:29:42.870Z,12.5
2018-04-18T05:30:08.385Z,12.53
2018-04-18T05:30:33.945Z,12.46
2018-04-18T05:30:59.540Z,12.45
2018-04-18T05:31:24.963Z,12.5
2018-04-18T05:31:50.460Z,12.61
2018-04-18T05:32:15.934Z,12.53
2018-04-18T05:32:41.529Z,12.68
2018-04-18T05:33:06.972Z,12.75
2018-04-18T05:33:32.457Z,12.79
2018-04-18T05:33:57.919Z,12.76
2018-04-18T05:34:23.354Z,12.83
2018-04-18T05:34:48.868Z,12.9
2018-04-18T05:35:14.318Z,12.93
2018-04-18T05:35:39.818Z,12.97
2018-04-18T05:36:05.320Z,13.01
2018-04-18T05:36:30.855Z,13.13
2018-04-18T05:36:56.320Z,13.18
2018-04-18T05:37:21.778Z,13.19
2018-04-18T05:37:47.317Z,13.31
2018-04-18T05:38:12.862Z,13.42
2018-04-18T05:38:38.296Z,13.41
2018-04-18T05:39:03.831Z,13.31
2018-04-18T05:39:29.339Z,13.38
2018-04-18T05:39:54.800Z,13.49
2018-04-18T05:40:20.283Z,13.53
2018-04-18T05:40:45.756Z,13.56
2018-04-18T05:41:11.282Z,13.67
2018-04-18T05:41:36.778Z,13.67
2018-04-18T05:42:02.171Z,13.74
2018-04-18T05:42:27.671Z,13.72
2018-04-18T05:42:53.097Z,13.79
2018-04-18T05:43:18.654Z,13.87
2018-04-18T05:43:44.106Z,13.79
2018-04-18T05:44:09.566Z,13.95
2018-04-18T05:44:35.080Z,13.92
2018-04-18T05:45:00.566Z,13.92
2018-04-18T05:45:26.008Z,14.03
2018-04-18T05:45:51.537Z,14
2018-04-18T05:46:17.000Z,14.03
2018-04-18T05:46:42.535Z,14.12
2018-04-18T05:47:08.043Z,14.17
2018-04-18T05:47:33.483Z,14.22
2018-04-18T05:47:58.962Z,14.23
2018-04-18T05:48:24.443Z,14.22
2018-04-18T05:48:49.962Z,14.28
2018-04-18T05:49:15.391Z,14.35
2018-04-18T05:49:41.080Z,14.35
2018-04-18T05:50:06.539Z,14.4
2018-04-18T05:50:32.085Z,14.44
2018-04-18T05:50:57.680Z,14.45
2018-04-18T05:51:23.181Z,14.51
2018-04-18T05:51:48.618Z,14.45
2018-04-18T05:52:14.228Z,14.55
2018-04-18T05:52:39.665Z,14.59
2018-04-18T05:53:05.205Z,14.66
2018-04-18T05:53:30.726Z,14.66
2018-04-18T05:53:56.422Z,14.66
2018-04-18T05:54:22.119Z,14.73
2018-04-18T05:54:47.663Z,14.73
2018-04-18T05:55:13.271Z,14.78
2018-04-18T05:55:39.019Z,14.77
2018-04-18T05:56:04.525Z,14.82
2018-04-18T05:56:30.071Z,14.84
2018-04-18T05:56:55.662Z,14.77
2018-04-18T05:57:21.206Z,14.81
2018-04-18T05:57:46.693Z,14.79
2018-04-18T05:58:12.175Z,14.85
2018-04-18T05:58:37.852Z,14.89
2018-04-18T05:59:03.331Z,14.84
2018-04-18T05:59:28.785Z,14.86
2018-04-18T05:59:54.522Z,14.88
2018-04-18T06:00:20.134Z,14.89
2018-04-18T06:00:45.505Z,14.85
2018-04-18T06:01:11.075Z,14.96
2018-04-18T06:01:36.791Z,15.06
2018-04-18T06:02:02.314Z,14.99
2018-04-18T06:02:27.928Z,15.09
2018-04-18T06:02:53.361Z,14.96
2018-04-18T06:03:19.026Z,15.06
2018-04-18T06:03:44.775Z,15.11
2018-04-18T06:04:10.438Z,15.09
2018-04-18T06:04:35.974Z,15.07
2018-04-18T06:05:01.665Z,15.1
2018-04-18T06:05:27.207Z,15.18
2018-04-18T06:05:52.768Z,15.22
2018-04-18T06:06:18.600Z,15.19
2018-04-18T06:06:44.076Z,15.28
2018-04-18T06:07:09.537Z,15.21
2018-04-18T06:07:35.159Z,15.19
2018-04-18T06:08:00.898Z,15.28
2018-04-18T06:08:26.288Z,15.27
2018-04-18T06:08:51.870Z,15.33
2018-04-18T06:09:17.935Z,15.33
2018-04-18T06:09:43.470Z,15.46
2018-04-18T06:10:09.324Z,15.52
2018-04-18T06:10:34.852Z,15.46
2018-04-18T06:11:00.610Z,15.52
2018-04-18T06:11:26.029Z,15.57
2018-04-18T06:11:51.617Z,15.57
2018-04-18T06:12:17.201Z,15.58
2018-04-18T06:12:42.807Z,15.52
2018-04-18T06:13:08.246Z,15.55
2018-04-18T06:13:34.007Z,15.65
2018-04-18T06:13:59.448Z,15.57
2018-04-18T06:14:25.026Z,15.55
2018-04-18T06:14:50.623Z,15.65
2018-04-18T06:15:16.240Z,15.64
2018-04-18T06:15:42.171Z,15.68
2018-04-18T06:16:07.533Z,15.7
2018-04-18T06:16:33.127Z,15.72
2018-04-18T06:16:58.777Z,15.77
2018-04-18T06:17:24.297Z,15.77
2018-04-18T06:17:49.745Z,15.77
2018-04-18T06:18:15.242Z,15.8
2018-04-18T06:18:40.863Z,15.79
2018-04-18T06:19:06.356Z,15.86
2018-04-18T06:19:31.855Z,15.9
2018-04-18T06:19:57.355Z,15.95
2018-04-18T06:20:22.919Z,15.86
2018-04-18T06:20:48.543Z,16
2018-04-18T06:21:14.084Z,16.01
2018-04-18T06:21:39.638Z,16.08
2018-04-18T06:22:05.163Z,16.08
2018-04-18T06:22:30.732Z,16.05
2018-04-18T06:22:56.286Z,16.16
2018-04-18T06:23:21.819Z,16.2
2018-04-18T06:23:47.400Z,16.21
2018-04-18T06:24:12.934Z,16.24
2018-04-18T06:24:38.400Z,16.38
2018-04-18T06:25:04.044Z,16.31
2018-04-18T06:25:29.599Z,16.39
2018-04-18T06:25:55.151Z,16.38
2018-04-18T06:26:20.742Z,16.46
2018-04-18T06:26:46.249Z,16.43
2018-04-18T06:27:11.807Z,16.53
2018-04-18T06:27:37.286Z,16.57
2018-04-18T06:28:02.924Z,16.65
2018-04-18T06:28:28.374Z,16.6
2018-04-18T06:28:53.822Z,16.6
2018-04-18T06:29:19.409Z,16.66
2018-04-18T06:29:45.123Z,16.71
2018-04-18T06:30:10.751Z,16.69
2018-04-18T06:30:36.184Z,16.83
2018-04-18T06:31:01.664Z,16.83
2018-04-18T06:31:27.256Z,16.72
2018-04-18T06:31:52.763Z,16.83
2018-04-18T06:32:18.130Z,16.9
2018-04-18T06:32:43.630Z,16.94
2018-04-18T06:33:09.190Z,17.05
2018-04-18T06:33:34.736Z,17.02
2018-04-18T06:34:00.262Z,17.06
2018-04-18T06:34:25.764Z,17.16
2018-04-18T06:34:51.361Z,17.2
2018-04-18T06:35:16.877Z,17.11
2018-04-18T06:35:42.492Z,17.14
2018-04-18T06:36:08.005Z,17.26
2018-04-18T06:36:33.510Z,17.26
2018-04-18T06:36:59.010Z,17.3
2018-04-18T06:37:24.501Z,17.27
2018-04-18T06:37:50.144Z,17.38
2018-04-18T06:38:15.542Z,17.36
2018-04-18T06:38:41.065Z,17.46
2018-04-18T06:39:06.739Z,17.46
2018-04-18T06:39:32.164Z,17.46
2018-04-18T06:39:57.761Z,17.57
2018-04-18T06:40:23.215Z,17.63
2018-04-18T06:40:48.778Z,17.56
2018-04-18T06:41:14.451Z,17.67
2018-04-18T06:41:39.869Z,17.71
2018-04-18T06:42:05.330Z,17.72
2018-04-18T06:42:30.773Z,17.79
2018-04-18T06:42:56.369Z,17.83
2018-04-18T06:43:21.878Z,17.76
2018-04-18T06:43:47.369Z,17.87
2018-04-18T06:44:12.920Z,17.86
2018-04-18T06:44:38.436Z,17.87
2018-04-18T06:45:04.028Z,17.86
2018-04-18T06:45:29.516Z,17.83
2018-04-18T06:45:55.052Z,17.97
2018-04-18T06:46:20.589Z,18.03
2018-04-18T06:46:46.132Z,18.01
2018-04-18T06:47:11.638Z,18.04
2018-04-18T06:47:37.108Z,18.04
2018-04-18T06:48:02.918Z,18.07
2018-04-18T06:48:28.150Z,18.11
2018-04-18T06:48:53.677Z,18.13
2018-04-18T06:49:19.178Z,18.18
2018-04-18T07:03:58.623Z,19
2018-04-18T07:11:54.210Z,19.49
2018-04-18T07:17:51.590Z,19.85
2018-04-18T07:18:27.727Z,19.91
2018-04-18T07:18:57.486Z,19.92
2018-04-18T07:19:25.614Z,19.94
2018-04-18T07:19:55.389Z,20.02
2018-04-18T07:20:21.286Z,19.99
2018-04-18T07:20:51.385Z,20.1
2018-04-18T07:21:29.365Z,20.06
2018-04-18T07:22:01.511Z,20.11
2018-04-18T07:22:27.033Z,20.19
2018-04-18T07:22:52.611Z,20.16
2018-04-18T07:23:21.402Z,20.21
2018-04-18T07:23:47.741Z,20.21
2018-04-18T07:24:23.449Z,20.24
2018-04-18T07:24:49.109Z,20.26
2018-04-18T07:25:14.673Z,20.25
2018-04-18T07:25:42.476Z,20.25
2018-04-18T07:26:07.998Z,20.26
2018-04-18T07:27:12.719Z,20.24
2018-04-18T07:27:44.093Z,20.24
2018-04-18T07:28:09.951Z,20.29
2018-04-18T07:28:48.688Z,20.29
2018-04-18T07:29:14.185Z,20.28
2018-04-18T07:29:42.323Z,20.28
2018-04-18T07:30:08.436Z,20.31
2018-04-18T07:30:40.813Z,20.48
2018-04-18T07:31:06.275Z,20.43
2018-04-18T07:31:39.973Z,20.48
2018-04-18T07:32:05.506Z,20.44
2018-04-18T07:32:32.595Z,20.44
2018-04-18T07:32:57.333Z,20.5
2018-04-18T07:33:25.193Z,20.52
2018-04-18T07:34:30.871Z,20.51
2018-04-18T07:34:59.920Z,20.52
2018-04-18T07:35:28.009Z,20.55
2018-04-18T07:35:53.434Z,20.59
2018-04-18T07:36:18.937Z,20.72
2018-04-18T07:36:44.512Z,20.77
2018-04-18T07:37:10.068Z,20.74
2018-04-18T07:37:35.577Z,20.72
2018-04-18T07:38:01.044Z,20.8
2018-04-18T07:38:26.843Z,20.81
2018-04-18T07:38:52.339Z,20.88
2018-04-18T07:39:17.814Z,20.87
2018-04-18T07:39:43.425Z,20.93
2018-04-18T07:40:08.903Z,20.99
2018-04-18T07:40:34.517Z,21
2018-04-18T07:41:00.033Z,20.95
2018-04-18T07:41:25.423Z,20.93
2018-04-18T07:41:51.016Z,20.93
2018-04-18T07:42:16.707Z,21.03
2018-04-18T07:42:42.301Z,20.95
2018-04-18T07:43:07.745Z,20.93
2018-04-18T07:43:33.219Z,20.99
2018-04-18T07:43:58.711Z,21
2018-04-18T07:44:24.237Z,21.07
2018-04-18T07:44:49.687Z,21.14
2018-04-18T07:45:15.216Z,21.11
2018-04-18T07:45:40.700Z,21.12
2018-04-18T07:46:06.366Z,21.02
2018-04-18T07:46:31.804Z,21.09
2018-04-18T07:46:57.485Z,21.07
2018-04-18T07:47:23.005Z,21.03
2018-04-18T07:47:48.572Z,21.07
2018-04-18T07:48:14.088Z,21.06
2018-04-18T07:48:39.778Z,21.07
2018-04-18T07:49:05.210Z,21.06
2018-04-18T07:49:30.788Z,21.14
2018-04-18T07:49:56.268Z,21.11
2018-04-18T07:50:21.798Z,21.09
2018-04-18T07:50:47.441Z,21.15
2018-04-18T07:51:13.094Z,21.09
2018-04-18T07:51:38.624Z,21.05
2018-04-18T07:52:04.075Z,21.06
2018-04-18T07:52:29.637Z,21.11
2018-04-18T07:52:55.097Z,21.12
2018-04-18T07:53:20.608Z,21.12
2018-04-18T07:53:46.215Z,21.11
2018-04-18T07:54:11.692Z,21.18
2018-04-18T07:54:37.241Z,21.22
2018-04-18T07:55:02.999Z,21.18
2018-04-18T07:55:28.545Z,21.25
2018-04-18T07:55:54.004Z,21.25
2018-04-18T07:56:19.716Z,21.25
2018-04-18T07:56:45.188Z,21.3
2018-04-18T07:57:10.675Z,21.36
2018-04-18T07:57:36.145Z,21.33
2018-04-18T07:58:01.685Z,21.3
2018-04-18T07:58:27.095Z,21.32
2018-04-18T07:58:52.825Z,21.35
2018-04-18T07:59:18.343Z,21.22
2018-04-18T07:59:43.875Z,21.27
2018-04-18T08:00:09.367Z,21.36
2018-04-18T08:00:34.964Z,21.3
2018-04-18T08:01:00.522Z,21.32
2018-04-18T08:01:25.979Z,21.27
2018-04-18T08:01:51.531Z,21.35
2018-04-18T08:02:17.286Z,21.27
2018-04-18T08:02:42.996Z,21.32
2018-04-18T08:03:08.451Z,21.29
2018-04-18T08:03:33.971Z,21.4
2018-04-18T08:03:59.549Z,21.32
2018-04-18T08:04:25.139Z,21.45
2018-04-18T08:04:50.719Z,21.45
2018-04-18T08:05:16.198Z,21.43
2018-04-18T08:05:41.780Z,21.35
2018-04-18T08:06:07.336Z,21.33
2018-04-18T08:06:32.881Z,21.42
2018-04-18T08:06:58.429Z,21.33
2018-04-18T08:07:24.023Z,21.39
2018-04-18T08:07:49.382Z,21.36
2018-04-18T08:08:14.877Z,21.42
2018-04-18T08:08:40.350Z,21.42
2018-04-18T08:09:06.025Z,21.37
2018-04-18T08:09:31.545Z,21.4
2018-04-18T08:09:57.054Z,21.45
2018-04-18T08:10:22.656Z,21.42
2018-04-18T08:10:48.315Z,21.48
2018-04-18T08:11:13.892Z,21.48
2018-04-18T08:11:39.616Z,21.45
2018-04-18T08:12:05.060Z,21.45
2018-04-18T08:12:30.631Z,21.43
2018-04-18T08:12:56.199Z,21.5
2018-04-18T08:13:21.630Z,21.46
2018-04-18T08:13:47.116Z,21.52
2018-04-18T08:14:12.634Z,21.48
2018-04-18T08:14:38.113Z,21.46
2018-04-18T08:15:03.650Z,21.5
2018-04-18T08:15:29.322Z,21.55
2018-04-18T08:15:54.962Z,21.55
2018-04-18T08:16:20.506Z,21.55
2018-04-18T08:16:46.069Z,21.6
2018-04-18T08:17:11.682Z,21.6
2018-04-18T08:17:37.422Z,21.52
2018-04-18T08:18:02.912Z,21.54
2018-04-18T08:18:28.491Z,21.58
2018-04-18T08:18:54.002Z,21.6
2018-04-18T08:19:19.487Z,21.54
2018-04-18T08:19:45.143Z,21.51
2018-04-18T08:20:10.782Z,21.5
2018-04-18T08:20:36.437Z,21.51
2018-04-18T08:21:01.996Z,21.52
2018-04-18T08:21:27.663Z,21.43
2018-04-18T08:21:53.112Z,21.52
2018-04-18T08:22:18.532Z,21.48
2018-04-18T08:22:44.064Z,21.6
2018-04-18T08:23:09.624Z,21.55
2018-04-18T08:23:35.013Z,21.51
2018-04-18T08:24:00.613Z,21.48
2018-04-18T08:24:26.103Z,21.51
2018-04-18T08:24:51.839Z,21.54
2018-04-18T08:25:17.467Z,21.55
2018-04-18T08:25:42.992Z,21.54
2018-04-18T08:26:08.535Z,21.42
2018-04-18T08:26:34.033Z,21.48
2018-04-18T08:26:59.675Z,21.51
2018-04-18T08:27:25.196Z,21.46
2018-04-18T08:27:50.679Z,21.52
2018-04-18T08:28:16.117Z,21.54
2018-04-18T08:28:41.667Z,21.54
2018-04-18T08:29:07.197Z,21.52
2018-04-18T08:29:32.622Z,21.52
2018-04-18T08:29:58.176Z,21.58
2018-04-18T08:30:23.664Z,21.61
2018-04-18T08:30:49.335Z,21.51
2018-04-18T08:31:14.895Z,21.5
2018-04-18T08:31:40.295Z,21.52
2018-04-18T08:32:05.917Z,21.52
2018-04-18T08:32:31.546Z,21.58
2018-04-18T08:32:57.022Z,21.57
2018-04-18T08:33:22.562Z,21.52
2018-04-18T08:33:48.086Z,21.61
2018-04-18T08:34:13.672Z,21.67
2018-04-18T08:34:39.174Z,21.7
2018-04-18T08:35:04.620Z,21.7
2018-04-18T08:35:30.184Z,21.72
2018-04-18T08:35:55.741Z,21.82
2018-04-18T08:36:21.360Z,21.82
2018-04-18T08:36:46.839Z,21.79
2018-04-18T08:37:12.440Z,21.83
2018-04-18T08:37:38.047Z,21.83
2018-04-18T08:38:03.670Z,21.92
2018-04-18T08:38:29.217Z,21.83
2018-04-18T08:38:54.657Z,21.8
2018-04-18T08:39:20.168Z,21.99
2018-04-18T08:39:45.750Z,21.91
2018-04-18T08:40:11.151Z,21.96
2018-04-18T08:40:36.712Z,21.95
2018-04-18T08:41:02.253Z,22
2018-04-18T08:41:28.127Z,22.07
2018-04-18T08:41:53.625Z,22.04
2018-04-18T08:42:19.130Z,22.04
2018-04-18T08:42:44.688Z,22
2018-04-18T08:43:10.237Z,21.99
2018-04-18T08:43:35.639Z,22
2018-04-18T08:44:01.116Z,22.1
2018-04-18T08:44:26.591Z,22.15
2018-04-18T08:44:52.123Z,22.11
2018-04-18T08:45:17.605Z,22.14
2018-04-18T08:45:43.114Z,22.11
2018-04-18T08:46:08.557Z,22.22
2018-04-18T08:46:34.132Z,22.23
2018-04-18T08:46:59.654Z,22.23
2018-04-18T08:47:25.303Z,22.17
2018-04-18T08:47:50.869Z,22.23
2018-04-18T08:48:16.360Z,22.17
2018-04-18T08:48:41.948Z,22.22
2018-04-18T08:49:07.492Z,22.17
2018-04-18T08:49:33.011Z,22.2
2018-04-18T08:49:58.423Z,22.22
2018-04-18T08:50:24.002Z,22.2
2018-04-18T08:50:49.477Z,22.08
2018-04-18T08:51:15.026Z,22.07
2018-04-18T08:51:40.504Z,22.08
2018-04-18T08:52:06.295Z,22.15
2018-04-18T08:52:31.798Z,22.18
2018-04-18T08:52:57.238Z,22.2
2018-04-18T08:53:22.818Z,22.15
2018-04-18T08:53:48.285Z,22.26
2018-04-18T08:54:13.884Z,22.32
2018-04-18T08:54:39.377Z,22.29
2018-04-18T08:55:04.929Z,22.38
2018-04-18T08:55:30.469Z,22.32
2018-04-18T08:55:55.945Z,22.39
2018-04-18T08:56:21.587Z,22.5
2018-04-18T08:56:47.045Z,22.43
2018-04-18T08:57:12.643Z,22.45
2018-04-18T08:57:38.216Z,22.39
2018-04-18T08:58:03.793Z,22.47
2018-04-18T08:58:29.363Z,22.45
2018-04-18T08:58:54.884Z,22.5
2018-04-18T08:59:20.492Z,22.5
2018-04-18T08:59:45.988Z,22.51
2018-04-18T09:00:11.544Z,22.48
2018-04-18T09:00:37.061Z,22.51
2018-04-18T09:01:02.586Z,22.55
2018-04-18T09:01:28.085Z,22.5
2018-04-18T09:01:53.578Z,22.44
2018-04-18T09:02:19.151Z,22.45
2018-04-18T09:02:44.569Z,22.43
2018-04-18T09:03:10.106Z,22.43
2018-04-18T09:03:35.694Z,22.43
2018-04-18T09:04:01.153Z,22.35
2018-04-18T09:04:26.783Z,22.36
2018-04-18T09:04:52.316Z,22.39
2018-04-18T09:05:17.847Z,22.39
2018-04-18T09:05:43.311Z,22.32
2018-04-18T09:06:08.913Z,22.28
2018-04-18T09:06:34.500Z,22.39
2018-04-18T09:06:59.888Z,22.29
2018-04-18T09:07:25.466Z,22.3
2018-04-18T09:07:50.963Z,22.32
2018-04-18T09:08:16.544Z,22.33
2018-04-18T09:08:42.142Z,22.33
2018-04-18T09:09:07.654Z,22.32
2018-04-18T09:09:33.087Z,22.35
2018-04-18T09:09:58.648Z,22.29
2018-04-18T09:10:24.125Z,22.29
2018-04-18T09:10:49.698Z,22.29
2018-04-18T09:11:15.268Z,22.26
2018-04-18T09:11:40.724Z,22.25
2018-04-18T09:12:06.321Z,22.35
2018-04-18T09:12:31.832Z,22.36
2018-04-18T09:12:57.367Z,22.35
2018-04-18T09:13:22.877Z,22.36
2018-04-18T09:13:48.559Z,22.35
2018-04-18T09:14:13.970Z,22.39
2018-04-18T09:14:39.450Z,22.41
2018-04-18T09:15:04.957Z,22.35
2018-04-18T09:15:30.402Z,22.43
2018-04-18T09:15:55.976Z,22.47
2018-04-18T09:16:21.494Z,22.38
2018-04-18T09:16:47.033Z,22.48
2018-04-18T09:17:12.604Z,22.39
2018-04-18T09:17:38.117Z,22.41
2018-04-18T09:18:03.640Z,22.48
2018-04-18T09:18:29.240Z,22.38
2018-04-18T09:18:54.736Z,22.5
2018-04-18T09:19:20.296Z,22.51
2018-04-18T09:19:45.819Z,22.39
2018-04-18T09:20:11.308Z,22.48
2018-04-18T09:20:36.812Z,22.48
2018-04-18T09:21:02.350Z,22.48
2018-04-18T09:21:27.795Z,22.54
2018-04-18T09:21:53.265Z,22.45
2018-04-18T09:22:19.007Z,22.47
2018-04-18T09:22:44.417Z,22.55
2018-04-18T09:23:09.903Z,22.55
2018-04-18T09:23:35.399Z,22.55
2018-04-18T09:24:00.981Z,22.55
2018-04-18T09:24:26.459Z,22.5
2018-04-18T09:24:51.976Z,22.5
2018-04-18T09:25:17.591Z,22.51
2018-04-18T09:25:43.113Z,22.51
2018-04-18T09:26:08.669Z,22.6
2018-04-18T09:26:34.168Z,22.51
2018-04-18T09:26:59.869Z,22.53
2018-04-18T09:27:25.373Z,22.65
2018-04-18T09:27:50.900Z,22.68
2018-04-18T09:28:16.432Z,22.72
2018-04-18T09:28:42.029Z,22.68
2018-04-18T09:29:07.547Z,22.78
2018-04-18T09:29:33.042Z,22.9
2018-04-18T09:29:58.606Z,22.83
2018-04-18T09:30:24.118Z,22.88
2018-04-18T09:30:49.657Z,22.84
2018-04-18T09:31:15.260Z,22.91
2018-04-18T09:31:40.874Z,22.93
2018-04-18T09:32:06.346Z,22.94
2018-04-18T09:32:31.950Z,22.99
2018-04-18T09:32:57.411Z,23
2018-04-18T09:33:22.948Z,23.05
2018-04-18T09:33:48.456Z,23.05
2018-04-18T09:34:14.071Z,23.09
2018-04-18T09:34:39.484Z,23.09
2018-04-18T09:35:04.993Z,23.06
2018-04-18T09:35:30.436Z,23.09
2018-04-18T09:35:55.962Z,23.06
2018-04-18T09:36:21.464Z,23
2018-04-18T09:36:46.928Z,23
2018-04-18T09:37:12.425Z,23.02
2018-04-18T09:37:37.939Z,23.02
2018-04-18T09:38:03.373Z,22.99
2018-04-18T09:38:28.918Z,22.96
2018-04-18T09:38:54.334Z,22.94
2018-04-18T09:39:19.805Z,22.9
2018-04-18T09:39:45.291Z,22.94
2018-04-18T09:40:10.784Z,23
2018-04-18T09:40:36.252Z,22.96
2018-04-18T09:41:01.712Z,22.98
2018-04-18T09:41:27.141Z,22.99
2018-04-18T09:41:52.668Z,22.99
2018-04-18T09:42:18.143Z,22.96
2018-04-18T09:42:43.675Z,23.05
2018-04-18T09:43:09.137Z,23
2018-04-18T09:43:34.597Z,23.02
2018-04-18T09:44:00.056Z,23.05
2018-04-18T09:44:25.540Z,23.12
2018-04-18T09:44:51.026Z,23.09
2018-04-18T09:45:16.575Z,23.2
2018-04-18T09:45:42.096Z,23.2
2018-04-18T09:46:07.546Z,23.24
2018-04-18T09:46:33.051Z,23.24
2018-04-18T09:46:58.480Z,23.27
2018-04-18T09:47:23.962Z,23.24
2018-04-18T09:47:49.464Z,23.28
2018-04-18T09:48:14.872Z,23.21
2018-04-18T09:48:40.442Z,23.28
2018-04-18T09:49:05.912Z,23.24
2018-04-18T09:49:31.356Z,23.25
2018-04-18T09:49:56.839Z,23.18
2018-04-18T09:50:22.296Z,23.34
2018-04-18T09:50:47.805Z,23.32
2018-04-18T09:51:13.286Z,23.36
2018-04-18T09:51:38.787Z,23.41
2018-04-18T09:52:04.215Z,23.44
2018-04-18T09:52:29.736Z,23.34
2018-04-18T09:52:55.174Z,23.41
2018-04-18T09:53:20.650Z,23.47
2018-04-18T09:53:46.131Z,23.4
2018-04-18T09:54:11.632Z,23.44
2018-04-18T09:54:37.118Z,23.46
2018-04-18T09:55:02.690Z,23.46
2018-04-18T09:55:28.175Z,23.37
2018-04-18T09:55:53.742Z,23.5
2018-04-18T09:56:19.254Z,23.41
2018-04-18T09:56:44.743Z,23.51
2018-04-18T09:57:10.244Z,23.51
2018-04-18T09:57:35.759Z,23.54
2018-04-18T09:58:01.316Z,23.58
2018-04-18T09:58:26.868Z,23.56
2018-04-18T09:58:52.277Z,23.55
2018-04-18T09:59:17.753Z,23.58
2018-04-18T09:59:43.318Z,23.58
2018-04-18T10:00:08.812Z,23.65
2018-04-18T10:00:34.345Z,23.63
2018-04-18T10:00:59.872Z,23.62
2018-04-18T10:01:25.459Z,23.65
2018-04-18T10:01:50.945Z,23.65
2018-04-18T10:02:16.440Z,23.66
2018-04-18T10:02:42.008Z,23.68
2018-04-18T10:03:07.643Z,23.68
2018-04-18T10:03:33.121Z,23.63
2018-04-18T10:03:58.684Z,23.71
2018-04-18T10:04:24.175Z,23.62
2018-04-18T10:04:49.719Z,23.54
2018-04-18T10:05:15.257Z,23.51
2018-04-18T10:05:40.985Z,23.4
2018-04-18T10:06:06.376Z,23.37
2018-04-18T10:06:32.045Z,23.41
2018-04-18T10:06:57.502Z,23.39
2018-04-18T10:07:23.001Z,23.24
2018-04-18T10:07:48.698Z,23.18
2018-04-18T10:08:14.093Z,23.21
2018-04-18T10:08:39.643Z,23.23
2018-04-18T10:09:05.146Z,23.25
2018-04-18T10:09:30.691Z,23.24
2018-04-18T10:09:56.141Z,23.23
2018-04-18T10:10:21.852Z,23.24
2018-04-18T10:10:47.191Z,23.23
2018-04-18T10:11:12.777Z,23.2
2018-04-18T10:11:38.397Z,23.21
2018-04-18T10:12:03.919Z,23.2
2018-04-18T10:12:29.580Z,23.21